Time;durP1;ratioP1;P1;durP2;ratioP2;P2;SDS_P1;SDS_P2;PMS_P1;PMS_P2;Temp;Humidity;BMP_temperature;BMP_pressure;BME280_temperature;BME280_humidity;BME280_pressure;Samples;Min_cycle;Max_cycle;Signal;HPM_P1;HPM_P2
2021/07/07 00:02:35;;;;;;;5.00;1.07;;;;;;;20.38;64.07;97825.28;8394408;28;20208;-73
2021/07/07 00:06:38;;;;;;;3.73;0.90;;;;;;;20.38;64.05;97833.19;8380307;28;20416;-71
2021/07/07 00:10:41;;;;;;;6.23;1.10;;;;;;;20.34;63.76;97840.50;8387409;28;20191;-71
2021/07/07 00:14:44;;;;;;;5.10;1.10;;;;;;;20.42;64.07;97856.44;8396298;28;20220;-71
2021/07/07 00:18:48;;;;;;;6.27;1.30;;;;;;;20.41;63.74;97857.41;8396328;28;20192;-71
2021/07/07 00:22:51;;;;;;;5.10;1.10;;;;;;;20.22;64.26;97849.41;8380510;28;20211;-71
2021/07/07 00:26:53;;;;;;;4.23;0.90;;;;;;;20.30;64.35;97855.69;8381134;28;20212;-71
2021/07/07 00:30:57;;;;;;;1.30;0.83;;;;;;;20.23;64.82;97859.81;8380520;28;20534;-71
2021/07/07 00:35:01;;;;;;;2.60;1.00;;;;;;;20.24;65.08;97852.78;8380316;28;20346;-71
2021/07/07 00:39:04;;;;;;;3.93;1.00;;;;;;;20.28;64.98;97851.53;8380178;28;20232;-71
2021/07/07 00:43:07;;;;;;;2.40;1.00;;;;;;;20.25;65.22;97849.16;8380471;28;20381;-71
2021/07/07 00:47:10;;;;;;;6.30;1.23;;;;;;;20.24;65.12;97852.78;8404477;28;20213;-71
2021/07/07 00:51:15;;;;;;;6.03;1.20;;;;;;;20.21;65.11;97855.66;8412882;28;20199;-71
2021/07/07 00:55:18;;;;;;;3.33;1.00;;;;;;;20.21;65.03;97853.84;8412716;28;20222;-71
2021/07/07 00:59:21;;;;;;;6.37;0.97;;;;;;;20.22;65.41;97859.94;8412521;28;20762;-71
2021/07/07 01:03:24;;;;;;;5.20;1.10;;;;;;;20.26;64.68;97856.09;8412883;28;20219;-71
2021/07/07 01:07:28;;;;;;;3.43;1.10;;;;;;;20.25;63.72;97851.81;8416720;28;20345;-71
2021/07/07 01:11:33;;;;;;;3.10;0.90;;;;;;;20.26;64.27;97848.22;8418477;28;20407;-70
2021/07/07 01:15:37;;;;;;;2.50;1.20;;;;;;;20.17;64.89;97836.69;8418223;28;20227;-71
2021/07/07 01:19:40;;;;;;;10.50;1.40;;;;;;;20.11;65.65;97832.78;8418183;28;20199;-71
2021/07/07 01:23:44;;;;;;;10.30;1.67;;;;;;;20.20;65.99;97840.84;8418241;28;20211;-71
2021/07/07 01:27:47;;;;;;;8.93;1.30;;;;;;;20.21;66.00;97843.34;8417789;28;20328;-71
2021/07/07 01:31:51;;;;;;;9.77;1.40;;;;;;;20.16;65.15;97840.25;8417783;28;20361;-71
2021/07/07 01:35:53;;;;;;;5.57;1.33;;;;;;;20.00;65.56;97838.13;8417623;28;20226;-70
2021/07/07 01:39:58;;;;;;;5.23;1.50;;;;;;;19.97;65.93;97819.16;8416975;28;20203;-71
2021/07/07 01:44:00;;;;;;;4.63;1.20;;;;;;;19.56;66.88;97805.91;8417286;28;20261;-71
2021/07/07 01:48:03;;;;;;;5.33;1.20;;;;;;;19.85;66.64;97819.22;8416710;28;20203;-71
2021/07/07 01:52:07;;;;;;;2.90;1.17;;;;;;;19.84;66.26;97833.34;8416601;28;20211;-71
2021/07/07 01:56:11;;;;;;;3.90;1.23;;;;;;;19.71;67.47;97809.03;8417008;28;20227;-71
2021/07/07 02:00:17;;;;;;;3.50;1.20;;;;;;;19.90;67.14;97813.59;8416908;28;20276;-71
2021/07/07 02:04:22;;;;;;;5.43;1.40;;;;;;;19.88;66.71;97841.81;8416896;28;20283;-71
2021/07/07 02:08:24;;;;;;;3.70;1.13;;;;;;;20.00;66.72;97853.88;8416276;28;20220;-71
2021/07/07 02:12:28;;;;;;;3.73;1.20;;;;;;;20.05;65.90;97845.63;8416533;28;20286;-71
2021/07/07 02:16:31;;;;;;;3.07;1.30;;;;;;;19.99;66.81;97856.63;8416226;28;20223;-71
2021/07/07 02:20:36;;;;;;;3.27;1.20;;;;;;;20.01;66.14;97865.22;8416240;28;20206;-71
2021/07/07 02:24:39;;;;;;;4.30;1.20;;;;;;;20.03;66.06;97863.28;8416175;28;20204;-71
2021/07/07 02:28:43;;;;;;;3.47;1.30;;;;;;;19.99;65.16;97856.63;8416151;28;20238;-71
2021/07/07 02:32:46;;;;;;;3.60;1.10;;;;;;;20.01;65.32;97859.97;8416075;28;20206;-71
2021/07/07 02:36:50;;;;;;;3.73;1.20;;;;;;;19.99;65.48;97857.50;8415913;28;20223;-71
2021/07/07 02:40:54;;;;;;;4.03;1.30;;;;;;;19.99;65.77;97857.50;8415878;28;20210;-71
2021/07/07 02:44:59;;;;;;;4.10;1.30;;;;;;;20.00;65.72;97874.91;8415256;28;20195;-71
2021/07/07 02:49:01;;;;;;;4.23;1.50;;;;;;;19.97;65.95;97859.44;8416080;28;20199;-71
2021/07/07 02:53:06;;;;;;;4.37;1.73;;;;;;;20.00;65.93;97874.09;8416281;28;20200;-71
2021/07/07 02:57:09;;;;;;;3.53;1.47;;;;;;;20.02;65.76;97867.72;8415934;28;20417;-71
2021/07/07 03:01:13;;;;;;;4.63;1.30;;;;;;;19.97;65.90;97858.56;8415944;28;20203;-71
2021/07/07 03:05:16;;;;;;;6.00;1.33;;;;;;;19.88;66.03;97865.44;8415575;28;20220;-71
2021/07/07 03:09:19;;;;;;;8.73;1.50;;;;;;;19.89;65.77;97870.56;8415634;28;20199;-70
2021/07/07 03:13:22;;;;;;;5.87;1.37;;;;;;;19.96;65.57;97878.78;8415586;28;20486;-71
2021/07/07 03:17:27;;;;;;;4.17;1.23;;;;;;;19.90;65.60;97872.22;8415252;28;20230;-71
2021/07/07 03:21:29;;;;;;;4.43;1.40;;;;;;;19.98;65.79;97886.53;8415236;28;20200;-71
2021/07/07 03:25:33;;;;;;;5.10;1.40;;;;;;;19.96;64.83;97880.56;8415231;28;20218;-71
2021/07/07 03:29:35;;;;;;;3.77;1.47;;;;;;;19.51;65.64;97892.09;8414573;28;20223;-71
2021/07/07 03:33:39;;;;;;;4.27;1.70;;;;;;;19.78;65.78;97881.16;8415115;28;20203;-70
2021/07/07 03:37:42;;;;;;;5.87;1.80;;;;;;;19.83;65.94;97883.38;8415056;28;20227;-71
2021/07/07 03:41:46;;;;;;;3.37;1.70;;;;;;;19.84;65.09;97880.63;8414786;28;20199;-71
2021/07/07 03:45:49;;;;;;;6.43;1.90;;;;;;;19.81;66.24;97880.88;8414763;28;20210;-71
2021/07/07 03:49:53;;;;;;;6.10;1.50;;;;;;;19.88;65.86;97876.78;8415054;28;20206;-71
2021/07/07 03:53:56;;;;;;;3.90;1.80;;;;;;;19.49;67.33;97873.84;8413846;28;20199;-71
2021/07/07 03:57:59;;;;;;;5.47;1.80;;;;;;;19.71;66.28;97870.28;8414414;28;20226;-71
2021/07/07 04:02:01;;;;;;;8.63;2.00;;;;;;;19.80;66.41;97878.38;8413953;28;20199;-71
2021/07/07 04:06:05;;;;;;;4.17;1.90;;;;;;;19.52;67.06;97876.22;8414002;28;20419;-71
2021/07/07 04:10:11;;;;;;;5.93;2.37;;;;;;;19.43;67.65;97876.97;8413960;28;20203;-71
2021/07/07 04:14:15;;;;;;;5.23;1.90;;;;;;;19.47;67.47;97881.00;8413713;28;20203;-71
2021/07/07 04:18:18;;;;;;;7.83;2.00;;;;;;;19.67;67.40;97887.25;8413936;28;20233;-71
2021/07/07 04:22:22;;;;;;;6.80;1.90;;;;;;;19.67;67.06;97905.66;8413935;28;20203;-71
2021/07/07 04:26:25;;;;;;;6.20;2.33;;;;;;;19.64;67.88;97921.66;8414001;28;20210;-71
2021/07/07 04:30:28;;;;;;;11.63;2.10;;;;;;;19.76;67.33;97919.84;8413348;28;20228;-70
2021/07/07 04:34:30;;;;;;;4.23;1.90;;;;;;;19.77;67.56;97932.03;8413465;28;20206;-71
2021/07/07 04:38:34;;;;;;;5.57;1.90;;;;;;;19.82;67.09;97939.50;8413360;28;20223;-71
2021/07/07 04:42:38;;;;;;;4.60;1.90;;;;;;;19.81;67.38;97954.44;8417776;28;20199;-71
2021/07/07 04:46:41;;;;;;;3.00;1.80;;;;;;;19.82;67.08;97965.78;8401708;28;20502;-71
2021/07/07 04:50:43;;;;;;;4.47;2.07;;;;;;;19.86;67.12;97961.97;8402260;28;20196;-71
2021/07/07 04:54:48;;;;;;;3.07;1.60;;;;;;;19.80;66.89;97955.44;8410323;28;20195;-71
2021/07/07 04:58:50;;;;;;;8.33;1.97;;;;;;;19.87;66.91;97946.06;8411418;28;20216;-71
2021/07/07 05:02:54;;;;;;;8.40;2.00;;;;;;;19.87;66.16;97953.94;8416627;28;20195;-71
2021/07/07 05:06:56;;;;;;;4.87;2.17;;;;;;;19.61;67.78;97953.44;8418705;28;20222;-71
2021/07/07 05:11:01;;;;;;;8.07;2.13;;;;;;;19.61;67.58;97940.31;8418213;28;20214;-71
2021/07/07 05:15:05;;;;;;;9.43;2.23;;;;;;;19.25;68.50;97938.88;8418124;28;20208;-70
2021/07/07 05:19:08;;;;;;;3.90;2.00;;;;;;;19.19;68.32;97936.72;8417883;28;20242;-71
2021/07/07 05:23:11;;;;;;;4.50;2.03;;;;;;;19.01;67.44;97934.63;8417519;28;20218;-70
2021/07/07 05:27:15;;;;;;;1.93;1.57;;;;;;;19.27;67.00;97940.41;8389863;28;20227;-71
2021/07/07 05:31:18;;;;;;;4.10;1.90;;;;;;;19.02;67.58;97938.06;8393773;28;20206;-71
2021/07/07 05:35:21;;;;;;;2.97;2.20;;;;;;;19.28;67.89;97942.06;8415495;28;20200;-71
2021/07/07 05:39:24;;;;;;;3.93;2.20;;;;;;;18.92;68.55;97927.47;8399658;28;20247;-71
2021/07/07 05:43:32;;;;;;;2.83;1.90;;;;;;;18.97;68.35;97919.25;8418745;28;20200;-71
2021/07/07 05:47:35;;;;;;;4.17;1.93;;;;;;;18.72;68.76;97911.47;8418156;28;20224;-71
2021/07/07 05:51:38;;;;;;;5.57;1.80;;;;;;;18.62;69.08;97907.94;8417621;28;20206;-70
2021/07/07 05:55:41;;;;;;;7.50;1.70;;;;;;;18.51;69.95;97921.88;8418060;28;20204;-71
2021/07/07 05:59:45;;;;;;;5.70;1.70;;;;;;;18.99;68.55;97954.91;8418173;28;20226;-70
2021/07/07 06:03:48;;;;;;;5.10;1.80;;;;;;;19.18;68.62;97964.78;8418250;28;20214;-71
2021/07/07 06:07:51;;;;;;;7.80;2.37;;;;;;;19.30;68.14;97979.53;8417984;28;20519;-71
2021/07/07 06:11:55;;;;;;;5.13;2.30;;;;;;;19.38;67.94;97981.56;8418120;28;20246;-71
2021/07/07 06:16:00;;;;;;;4.37;1.90;;;;;;;19.38;67.54;97984.19;8417938;28;20202;-71
2021/07/07 06:20:04;;;;;;;6.73;1.90;;;;;;;19.47;67.40;97988.69;8418307;28;20250;-71
2021/07/07 06:24:07;;;;;;;2.67;2.13;;;;;;;19.47;67.56;97967.69;8417868;28;20200;-71
2021/07/07 06:28:10;;;;;;;4.93;1.90;;;;;;;19.52;67.88;97978.66;8417299;28;20235;-71
2021/07/07 06:32:14;;;;;;;4.73;2.03;;;;;;;19.49;66.87;97980.69;8418059;28;20242;-71
2021/07/07 06:36:17;;;;;;;4.87;2.17;;;;;;;19.54;68.21;97981.16;8417734;28;20202;-71
2021/07/07 06:40:21;;;;;;;5.03;2.30;;;;;;;19.55;68.02;98009.06;8416883;28;20232;-71
2021/07/07 06:44:23;;;;;;;2.53;2.30;;;;;;;19.58;67.10;98018.53;8416958;28;20200;-71
2021/07/07 06:48:28;;;;;;;6.43;2.60;;;;;;;19.61;66.93;98020.88;8416167;28;20203;-71
2021/07/07 06:52:30;;;;;;;6.47;2.50;;;;;;;19.58;67.50;98021.97;8415626;28;20201;-71
2021/07/07 06:56:33;;;;;;;8.53;2.47;;;;;;;19.67;68.61;98025.66;8415176;28;20378;-71
2021/07/07 07:00:36;;;;;;;2.77;2.57;;;;;;;19.68;68.07;98028.16;8412283;28;20192;-71
2021/07/07 07:04:40;;;;;;;6.93;2.70;;;;;;;19.78;67.92;98045.84;8414312;28;20391;-71
2021/07/07 07:08:43;;;;;;;5.83;2.60;;;;;;;19.84;68.46;98056.69;8415091;28;20227;-71
2021/07/07 07:12:46;;;;;;;7.33;2.90;;;;;;;19.80;68.74;98039.50;8415004;28;20199;-70
2021/07/07 07:16:50;;;;;;;4.33;3.10;;;;;;;19.71;68.91;98033.16;8415015;28;20329;-71
2021/07/07 07:20:54;;;;;;;5.20;3.30;;;;;;;19.86;68.59;98032.94;8414335;28;20222;-71
2021/07/07 07:24:57;;;;;;;6.47;3.90;;;;;;;19.83;68.23;98051.56;8414341;28;20199;-71
2021/07/07 07:29:00;;;;;;;5.73;3.27;;;;;;;19.78;68.96;98045.84;8413907;28;20231;-71
2021/07/07 07:33:03;;;;;;;4.20;3.20;;;;;;;19.80;68.96;98052.66;8414173;28;20511;-71
2021/07/07 07:37:09;;;;;;;3.93;3.00;;;;;;;19.70;68.70;98076.19;8413609;28;20265;-71
2021/07/07 07:41:12;;;;;;;5.43;3.13;;;;;;;19.57;69.05;98080.72;8413775;28;20198;-71
2021/07/07 07:45:16;;;;;;;5.07;3.30;;;;;;;19.64;68.88;98081.06;8405852;28;20203;-71
2021/07/07 07:49:18;;;;;;;3.80;2.80;;;;;;;19.84;68.38;98082.16;8396443;28;20393;-71
2021/07/07 07:53:23;;;;;;;4.50;2.97;;;;;;;20.01;68.61;98086.00;8412582;28;20198;-71
2021/07/07 07:57:26;;;;;;;4.90;3.63;;;;;;;20.07;67.56;98075.03;8413421;28;20235;-71
2021/07/07 08:01:29;;;;;;;8.53;2.17;;;;;;;20.41;69.29;98069.59;8412093;28;20388;-74
2021/07/07 08:05:32;;;;;;;8.03;2.90;;;;;;;20.71;67.68;98074.13;8413230;28;20310;-73
2021/07/07 08:09:36;;;;;;;4.10;2.40;;;;;;;20.80;67.54;98085.69;8413444;28;20498;-74
2021/07/07 08:13:40;;;;;;;5.03;2.20;;;;;;;20.98;66.64;98081.50;8409892;28;20340;-74
2021/07/07 08:17:45;;;;;;;3.70;2.37;;;;;;;21.15;65.75;98081.81;8410651;28;20226;-72
2021/07/07 08:21:48;;;;;;;5.13;2.47;;;;;;;21.24;64.53;98079.22;8413219;28;20199;-72
2021/07/07 08:25:53;;;;;;;3.07;2.30;;;;;;;21.30;64.04;98098.94;8413133;28;20521;-72
2021/07/07 08:29:56;;;;;;;3.80;2.33;;;;;;;21.34;64.08;98094.25;8413079;28;20244;-74
2021/07/07 08:33:58;;;;;;;6.87;2.30;;;;;;;21.27;63.66;98086.88;8413093;28;20203;-74
2021/07/07 08:38:01;;;;;;;4.07;2.40;;;;;;;21.06;64.26;98083.47;8413136;28;20230;-74
2021/07/07 08:42:05;;;;;;;4.50;3.00;;;;;;;20.81;64.78;98088.19;8398387;28;20203;-73
2021/07/07 08:46:08;;;;;;;4.67;3.40;;;;;;;20.50;64.88;98088.09;8380669;28;20206;-73
2021/07/07 08:50:13;;;;;;;5.23;3.27;;;;;;;20.52;63.88;98106.34;8379548;28;20204;-74
2021/07/07 08:54:17;;;;;;;5.13;2.80;;;;;;;20.51;64.88;98100.28;8379452;28;20287;-74
2021/07/07 08:58:21;;;;;;;4.40;3.10;;;;;;;20.42;65.52;98110.72;8379162;28;20229;-71
2021/07/07 09:02:26;;;;;;;3.93;3.00;;;;;;;19.71;67.43;98100.66;8379420;28;20212;-70
2021/07/07 09:06:29;;;;;;;6.07;3.30;;;;;;;19.58;68.16;98105.19;8379173;28;20219;-71
2021/07/07 09:10:33;;;;;;;5.27;3.00;;;;;;;19.98;67.51;98113.38;8379004;28;20211;-72
2021/07/07 09:14:37;;;;;;;5.67;3.07;;;;;;;20.08;68.36;98122.19;8379247;28;20206;-69
2021/07/07 09:18:40;;;;;;;3.83;2.73;;;;;;;20.02;67.76;98130.56;8378939;28;20234;-68
2021/07/07 09:22:43;;;;;;;3.67;3.10;;;;;;;20.00;67.88;98142.19;8379170;28;20294;-70
2021/07/07 09:26:58;;;;;;;4.50;3.17;;;;;;;19.86;67.32;98149.38;8380782;28;20199;-70
2021/07/07 09:31:05;;;;;;;5.93;2.70;;;;;;;20.15;66.54;98161.16;8385072;28;20408;-71
2021/07/07 09:35:08;;;;;;;4.57;2.80;;;;;;;20.31;66.78;98166.81;8385006;28;20298;-70
2021/07/07 09:39:11;;;;;;;3.27;2.40;;;;;;;20.35;65.13;98165.59;8384559;28;20307;-72
2021/07/07 09:43:14;;;;;;;3.53;2.80;;;;;;;20.52;66.07;98182.66;8384397;28;20207;-71
2021/07/07 09:47:38;;;;;;;5.23;3.27;;;;;;;20.72;65.42;98190.75;8412154;28;20198;-70
2021/07/07 09:51:47;;;;;;;4.90;2.87;;;;;;;21.13;63.28;98192.53;8417234;28;20223;-71
2021/07/07 09:55:51;;;;;;;6.30;2.83;;;;;;;21.13;63.67;98186.44;8417098;28;20199;-71
2021/07/07 09:59:54;;;;;;;4.43;2.63;;;;;;;21.16;63.00;98187.03;8416688;28;20250;-71
2021/07/07 10:04:01;;;;;;;2.60;2.40;;;;;;;21.28;62.12;98178.13;8416804;28;20240;-71
2021/07/07 10:08:04;;;;;;;4.13;2.40;;;;;;;21.13;63.93;98182.00;8416505;28;20538;-71
2021/07/07 10:12:10;;;;;;;6.13;2.73;;;;;;;21.15;64.19;98181.88;8416613;28;20249;-71
2021/07/07 10:16:14;;;;;;;7.53;3.37;;;;;;;20.96;63.39;98174.69;8416552;28;20521;-70
2021/07/07 10:20:19;;;;;;;3.00;2.60;;;;;;;21.00;63.51;98158.53;8415970;28;20228;-73
2021/07/07 10:24:27;;;;;;;4.17;3.07;;;;;;;21.14;62.55;98159.16;8393667;28;20196;-73
2021/07/07 10:28:30;;;;;;;4.03;2.37;;;;;;;21.23;62.56;98161.84;8383164;28;20305;-73
2021/07/07 10:32:33;;;;;;;2.93;2.50;;;;;;;21.19;63.97;98146.44;8383246;28;20201;-73
2021/07/07 10:36:40;;;;;;;4.53;2.40;;;;;;;21.55;62.00;98144.28;8382823;28;20203;-74
2021/07/07 10:40:49;;;;;;;4.93;2.50;;;;;;;21.49;62.17;98153.53;8382702;28;20234;-73
2021/07/07 10:44:53;;;;;;;5.20;2.50;;;;;;;21.52;62.12;98139.28;8388386;28;20195;-74
2021/07/07 10:49:17;;;;;;;4.23;2.80;;;;;;;21.57;62.79;98143.19;8416084;28;20207;-73
2021/07/07 10:53:35;;;;;;;3.13;2.50;;;;;;;21.63;62.92;98150.56;8416167;28;20202;-73
2021/07/07 10:57:39;;;;;;;4.57;2.50;;;;;;;21.50;62.70;98163.13;8416149;28;20203;-73
2021/07/07 11:01:42;;;;;;;5.63;2.37;;;;;;;21.87;61.52;98178.38;8415619;28;20235;-74
2021/07/07 11:05:45;;;;;;;3.33;2.97;;;;;;;21.75;60.96;98174.19;8415737;28;20223;-73
2021/07/07 11:09:52;;;;;;;6.00;2.53;;;;;;;22.36;59.75;98174.06;8415656;28;20206;-73
2021/07/07 11:13:55;;;;;;;4.77;2.57;;;;;;;22.17;60.25;98166.91;8415662;28;20208;-69
2021/07/07 11:17:59;;;;;;;6.50;3.00;;;;;;;22.18;60.42;98175.66;8415414;28;20203;-69
2021/07/07 11:22:03;;;;;;;13.60;2.60;;;;;;;22.11;60.74;98188.56;8415391;28;20326;-69
2021/07/07 11:26:08;;;;;;;7.23;2.80;;;;;;;22.34;60.24;98185.72;8405379;28;20203;-69
2021/07/07 11:30:13;;;;;;;6.33;2.60;;;;;;;22.58;59.14;98190.59;8381696;28;20249;-69
2021/07/07 11:34:16;;;;;;;3.37;2.70;;;;;;;22.47;59.18;98191.56;8381978;28;20393;-69
2021/07/07 11:38:23;;;;;;;3.80;2.43;;;;;;;22.73;58.82;98167.25;8381532;28;20208;-70
2021/07/07 11:42:28;;;;;;;3.00;2.50;;;;;;;22.74;58.20;98176.84;8386852;28;20226;-71
2021/07/07 11:46:31;;;;;;;2.87;2.30;;;;;;;22.34;57.78;98167.25;8400176;28;20199;-71
2021/07/07 11:50:35;;;;;;;2.10;1.90;;;;;;;23.05;57.49;98174.88;8413963;28;20283;-71
2021/07/07 11:54:47;;;;;;;2.20;2.00;;;;;;;23.30;56.35;98162.03;8414565;28;20199;-70
2021/07/07 11:58:53;;;;;;;3.17;2.30;;;;;;;23.57;56.05;98163.88;8399780;28;20223;-77
2021/07/07 12:02:56;;;;;;;2.33;2.13;;;;;;;23.88;54.87;98166.28;8386686;28;20195;-77
2021/07/07 12:06:59;;;;;;;4.23;1.90;;;;;;;24.36;53.46;98171.25;8381001;28;20242;-76
2021/07/07 12:11:13;;;;;;;4.13;2.00;;;;;;;23.98;54.24;98175.00;8381150;28;20211;-78
2021/07/07 12:15:24;;;;;;;3.40;2.03;;;;;;;23.84;54.62;98178.13;8381738;28;20379;-75
2021/07/07 12:19:28;;;;;;;3.73;2.00;;;;;;;23.47;53.38;98171.84;8414190;28;20237;-76
2021/07/07 12:23:30;;;;;;;4.50;1.80;;;;;;;23.38;54.93;98175.34;8414197;28;20209;-76
2021/07/07 12:27:33;;;;;;;1.93;1.50;;;;;;;24.35;52.36;98179.34;8402802;28;20221;-76
2021/07/07 12:31:40;;;;;;;2.63;1.70;;;;;;;24.77;50.26;98171.66;8392204;28;20198;-76
2021/07/07 12:35:46;;;;;;;1.83;1.30;;;;;;;24.79;50.60;98176.81;8396684;28;20237;-77
2021/07/07 12:39:52;;;;;;;1.47;1.20;;;;;;;24.64;51.69;98176.53;8396551;28;20218;-76
2021/07/07 12:44:06;;;;;;;1.97;1.47;;;;;;;23.92;51.74;98163.19;8397131;28;20417;-76
2021/07/07 12:48:10;;;;;;;3.30;1.50;;;;;;;24.04;51.77;98169.09;8396863;28;20207;-76
2021/07/07 12:52:19;;;;;;;2.10;1.20;;;;;;;24.00;51.79;98178.31;8393509;28;20195;-76
2021/07/07 12:56:23;;;;;;;1.33;1.23;;;;;;;23.66;53.21;98173.56;8379849;28;20196;-77
2021/07/07 13:00:38;;;;;;;1.33;0.90;;;;;;;24.10;51.92;98178.25;8380467;28;20231;-76
2021/07/07 13:04:44;;;;;;;3.40;1.30;;;;;;;24.14;52.30;98182.28;8394687;28;20474;-70
2021/07/07 13:08:47;;;;;;;2.87;1.20;;;;;;;24.02;52.63;98181.66;8386903;28;20227;-71
2021/07/07 13:12:50;;;;;;;4.70;1.53;;;;;;;23.77;54.10;98191.06;8393559;28;20199;-70
2021/07/07 13:16:54;;;;;;;8.00;1.33;;;;;;;23.75;53.85;98180.63;8390360;28;20259;-70
2021/07/07 13:20:59;;;;;;;2.57;1.40;;;;;;;23.73;53.90;98189.72;8398227;28;20219;-70
2021/07/07 13:25:02;;;;;;;7.30;1.50;;;;;;;23.88;53.98;98180.34;8387489;28;20494;-70
2021/07/07 13:29:20;;;;;;;2.07;1.60;;;;;;;23.77;54.87;98181.31;8386476;28;20236;-70
2021/07/07 13:33:22;;;;;;;2.20;1.23;;;;;;;23.94;54.08;98185.03;8386305;28;20390;-70
2021/07/07 13:37:29;;;;;;;2.73;1.30;;;;;;;23.35;53.49;98173.00;8386152;28;20440;-70
2021/07/07 13:41:32;;;;;;;3.13;1.33;;;;;;;23.49;53.72;98167.25;8386105;28;20281;-70
2021/07/07 13:45:35;;;;;;;3.13;1.60;;;;;;;23.37;54.20;98166.59;8397510;28;20199;-70
2021/07/07 13:49:38;;;;;;;2.30;1.50;;;;;;;23.59;54.90;98162.78;8407655;28;20205;-71
2021/07/07 13:53:42;;;;;;;2.03;1.33;;;;;;;23.42;54.42;98174.94;8390006;28;20438;-72
2021/07/07 13:57:45;;;;;;;3.23;1.50;;;;;;;23.49;53.51;98179.63;8394467;28;20261;-71
2021/07/07 14:01:48;;;;;;;2.03;1.30;;;;;;;23.59;54.30;98169.88;8390660;28;20246;-69
2021/07/07 14:05:52;;;;;;;1.63;1.30;;;;;;;23.74;53.94;98179.00;8405455;28;20231;-70
2021/07/07 14:09:56;;;;;;;2.53;1.30;;;;;;;23.64;53.40;98180.00;8400824;28;20196;-70
2021/07/07 14:13:59;;;;;;;4.57;1.53;;;;;;;23.64;54.09;98180.00;8385194;28;20195;-72
2021/07/07 14:18:02;;;;;;;4.47;1.40;;;;;;;23.62;54.04;98177.50;8390204;28;20215;-72
2021/07/07 14:22:05;;;;;;;5.20;1.63;;;;;;;23.74;53.69;98180.78;8409683;28;20325;-72
2021/07/07 14:26:09;;;;;;;3.07;1.53;;;;;;;23.77;53.85;98172.56;8413876;28;20209;-73
2021/07/07 14:30:12;;;;;;;3.07;1.33;;;;;;;23.80;53.51;98173.13;8417722;28;20276;-74
2021/07/07 14:34:17;;;;;;;6.83;1.60;;;;;;;23.90;53.55;98180.19;8411842;28;20202;-74
2021/07/07 14:38:20;;;;;;;4.37;1.00;;;;;;;23.80;53.32;98181.06;8417926;28;20270;-74
2021/07/07 14:42:24;;;;;;;4.10;1.10;;;;;;;23.97;53.53;98183.91;8417488;28;20237;-73
2021/07/07 14:46:37;;;;;;;3.00;1.00;;;;;;;24.33;52.86;98186.59;8417699;28;20521;-74
2021/07/07 14:50:40;;;;;;;2.20;0.97;;;;;;;24.88;50.89;98188.28;8416761;28;20249;-74
2021/07/07 14:54:43;;;;;;;1.83;0.80;;;;;;;25.17;49.24;98182.72;8416600;28;20199;-75
2021/07/07 14:58:47;;;;;;;2.37;1.20;;;;;;;24.38;49.96;98189.63;8416464;28;20266;-73
2021/07/07 15:02:50;;;;;;;3.70;1.07;;;;;;;24.28;51.29;98175.66;8416234;28;20238;-73
2021/07/07 15:06:53;;;;;;;1.40;1.00;;;;;;;24.18;51.61;98188.94;8415814;28;20295;-73
2021/07/07 15:10:56;;;;;;;2.93;1.20;;;;;;;24.27;50.90;98189.84;8410011;28;20205;-74
2021/07/07 15:15:00;;;;;;;1.37;1.00;;;;;;;24.08;50.45;98198.75;8415641;28;20196;-73
2021/07/07 15:19:03;;;;;;;2.27;1.07;;;;;;;24.05;51.84;98199.88;8415574;28;20210;-73
2021/07/07 15:23:07;;;;;;;1.80;1.00;;;;;;;23.95;51.86;98199.94;8408343;28;20231;-68
2021/07/07 15:27:10;;;;;;;1.37;1.07;;;;;;;23.70;51.50;98205.84;8414031;28;20203;-68
2021/07/07 15:31:14;;;;;;;2.80;0.90;;;;;;;23.58;51.67;98203.38;8414417;28;20206;-68
2021/07/07 15:35:18;;;;;;;1.07;0.97;;;;;;;23.51;52.75;98204.09;8414418;28;20202;-68
2021/07/07 15:39:21;;;;;;;1.63;1.10;;;;;;;23.44;53.59;98188.00;8414506;28;20198;-68
2021/07/07 15:43:23;;;;;;;2.77;1.20;;;;;;;23.45;54.60;98191.47;8414567;28;20237;-68
2021/07/07 15:47:29;;;;;;;3.47;1.47;;;;;;;23.51;53.96;98189.06;8413816;28;20229;-67
2021/07/07 15:51:32;;;;;;;2.77;1.07;;;;;;;23.54;54.68;98187.97;8414077;28;20407;-67
2021/07/07 15:55:35;;;;;;;1.27;1.10;;;;;;;23.59;54.02;98189.22;8413870;28;20199;-67
2021/07/07 15:59:38;;;;;;;1.90;1.00;;;;;;;23.61;53.74;98186.41;8413393;28;20225;-68
2021/07/07 16:03:42;;;;;;;1.13;1.10;;;;;;;23.69;52.73;98198.91;8413618;28;20489;-68
2021/07/07 16:07:44;;;;;;;2.47;1.17;;;;;;;23.50;52.86;98198.00;8407368;28;20226;-69
2021/07/07 16:11:48;;;;;;;1.20;1.03;;;;;;;23.41;53.37;98193.56;8413141;28;20245;-69
2021/07/07 16:15:51;;;;;;;2.00;1.30;;;;;;;23.29;54.36;98190.28;8404221;28;20190;-69
2021/07/07 16:19:56;;;;;;;1.27;1.10;;;;;;;23.27;53.92;98194.88;8384007;28;20243;-69
2021/07/07 16:23:59;;;;;;;1.27;1.00;;;;;;;23.23;53.07;98194.31;8400552;28;20267;-74
2021/07/07 16:28:03;;;;;;;4.40;1.30;;;;;;;23.09;52.73;98199.22;8389297;28;20253;-72
2021/07/07 16:32:06;;;;;;;1.30;1.20;;;;;;;22.95;52.75;98200.44;8396371;28;20290;-73
2021/07/07 16:36:11;;;;;;;1.43;1.20;;;;;;;22.88;54.65;98201.97;8382084;28;20277;-74
2021/07/07 16:40:15;;;;;;;2.60;1.37;;;;;;;22.74;53.82;98195.31;8388642;28;20207;-72
2021/07/07 16:44:17;;;;;;;1.67;1.40;;;;;;;22.50;56.16;98191.28;8394854;28;20194;-73
2021/07/07 16:48:20;;;;;;;2.90;1.80;;;;;;;22.47;57.79;98196.84;8403234;28;20198;-74
2021/07/07 16:52:25;;;;;;;2.77;2.40;;;;;;;21.96;60.31;98198.66;8410548;28;20200;-75
2021/07/07 16:56:28;;;;;;;3.03;2.10;;;;;;;22.09;60.65;98202.88;8410793;28;20203;-73
2021/07/07 17:00:32;;;;;;;2.40;2.20;;;;;;;21.77;61.81;98196.78;8410005;28;20226;-74
2021/07/07 17:04:35;;;;;;;3.63;2.20;;;;;;;21.97;60.31;98204.75;8406545;28;20252;-82
2021/07/07 17:08:39;;;;;;;3.63;2.10;;;;;;;22.12;60.29;98194.66;8406498;28;20221;-80
2021/07/07 17:12:42;;;;;;;4.67;2.20;;;;;;;22.08;60.67;98196.72;8404030;28;20203;-81
2021/07/07 17:16:45;;;;;;;5.43;2.20;;;;;;;22.19;59.86;98196.63;8390869;28;20211;-81
2021/07/07 17:20:48;;;;;;;2.10;1.90;;;;;;;22.24;59.45;98201.50;8390529;28;20241;-81
2021/07/07 17:24:52;;;;;;;2.20;2.00;;;;;;;22.18;59.07;98199.38;8390840;28;20209;-80
2021/07/07 17:28:55;;;;;;;2.77;1.90;;;;;;;22.24;58.86;98196.22;8390913;28;20246;-83
2021/07/07 17:32:58;;;;;;;3.00;1.73;;;;;;;22.20;58.08;98194.81;8393464;28;20216;-82
2021/07/07 17:37:01;;;;;;;2.77;1.67;;;;;;;22.68;56.95;98199.34;8416814;28;20221;-84
2021/07/07 17:41:05;;;;;;;4.70;1.90;;;;;;;22.64;57.56;98195.34;8418742;28;20293;-82
2021/07/07 17:45:09;;;;;;;2.67;1.73;;;;;;;22.49;57.71;98184.34;8400298;28;20200;-83
2021/07/07 17:49:11;;;;;;;5.87;2.20;;;;;;;22.43;58.06;98188.38;8398695;28;20206;-79
2021/07/07 17:53:15;;;;;;;4.00;2.00;;;;;;;22.18;58.49;98189.69;8400739;28;20214;-78
2021/07/07 17:57:19;;;;;;;3.77;2.00;;;;;;;22.47;57.97;98196.84;8400267;28;20226;-78
2021/07/07 18:01:22;;;;;;;1.90;1.80;;;;;;;22.36;57.66;98192.53;8399090;28;20226;-79
2021/07/07 18:05:25;;;;;;;3.10;2.57;;;;;;;22.52;57.73;98196.41;8400540;28;20218;-79
2021/07/07 18:09:43;;;;;;;2.67;1.83;;;;;;;22.73;57.12;98199.78;8400626;28;20347;-79
2021/07/07 18:13:47;;;;;;;3.67;2.23;;;;;;;22.51;57.00;98200.03;8399700;28;20196;-79
2021/07/07 18:17:50;;;;;;;4.83;1.77;;;;;;;22.42;57.17;98197.25;8401292;28;20198;-78
2021/07/07 18:21:55;;;;;;;1.90;1.67;;;;;;;22.68;57.19;98204.63;8400526;28;20219;-78
2021/07/07 18:25:57;;;;;;;2.63;2.00;;;;;;;22.76;56.15;98214.50;8415986;28;20198;-82
2021/07/07 18:30:02;;;;;;;2.97;1.93;;;;;;;22.78;55.97;98218.66;8417453;28;20234;-80
2021/07/07 18:34:08;;;;;;;3.80;2.10;;;;;;;22.71;56.08;98214.06;8403590;28;20210;-80
2021/07/07 18:38:11;;;;;;;2.90;2.60;;;;;;;22.64;56.95;98221.72;8409548;28;20206;-82
2021/07/07 18:42:14;;;;;;;6.50;3.10;;;;;;;22.60;57.64;98222.97;8388007;28;20219;-82
2021/07/07 18:46:19;;;;;;;4.83;3.10;;;;;;;22.65;57.45;98233.94;8397345;28;20202;-81
2021/07/07 18:50:23;;;;;;;5.87;3.17;;;;;;;22.55;57.64;98236.56;8389262;28;20501;-82
2021/07/07 18:54:26;;;;;;;4.33;2.80;;;;;;;22.48;58.58;98227.53;8390840;28;20517;-82
2021/07/07 18:58:29;;;;;;;6.33;3.07;;;;;;;22.30;59.21;98223.91;8404143;28;20201;-70
2021/07/07 19:02:33;;;;;;;4.93;3.10;;;;;;;22.28;59.18;98225.84;8400022;28;20215;-69
2021/07/07 19:06:36;;;;;;;6.17;2.80;;;;;;;22.22;60.05;98229.81;8401083;28;20220;-69
2021/07/07 19:10:38;;;;;;;5.00;2.83;;;;;;;22.18;60.36;98223.97;8417099;28;20206;-69